Keith, Illinois
Current Conditions -  °F | °C
As of 9:35 AM on Saturday 25 Oct 2014 (Local Time) from KFOA Reporting Station
Clear Clear  
Wind Chill: 18°   Ceiling: Unl
Heat Index: 18°   Visibility: 10mi
Dew Point: 15°   Wind: 7mph
Humidity: 83%   Direction: 320°NW
Pressure: 30.03"   Gusts: NA
Location:  38.5816°N, 88.4678°W
Report Text: KFOA 251435Z AUTO 32006KT 10SM CLR 18/15 A3003 RMK AO2 T01760146
Loading
Personal Weather Stations






























Interactive Weather Map
Tropical Storm Tracking
New forecast layout! Learn more

10-Day Weather Forecast

Advertisements
Track Severe Weather on mobile